EIN58G EIDW-LEMG
Flight info
| Callsign | EIN58G |
|---|---|
| Flight time | N/A |
| Altitude | 36000 |
| Route | PELIG2J PELIG DCT GOTEM DCT TUVEN/M079F360 DCT TULTA/N0454F360 DCT KOPIP DCT KORUL DCT VES DCT OMESI DCT VETAN DCT ZMR DCT AVILA DCT NVS DCT TLD DCT DOPEN DCT MONTO DCT CRISA N864 VULPE |
| Aircraft | A320/M-SDE3FGHIRWY/LB1 |
Departure
| Time | 2026-05-01 15:27 |
|---|---|
| Airport | Dublin Airport (EIDW) |
Arrival
| Time | N/A |
|---|---|
| Airport | Málaga-Costa del Sol Airport (LEMG) |
| Time | Latitude | Longitude | Altitude | Speed | Heading |
|---|---|---|---|---|---|
| 2026-05-01 15:00 | 53.42264 | -6.23896 | 211 ft | 0 kts | 27° |
| 2026-05-01 15:15 | 53.42246 | -6.23910 | 212 ft | 2 kts | 19° |
| 2026-05-01 15:16 | 53.42221 | -6.23900 | 214 ft | 1 kts | 297° |
| 2026-05-01 15:16 | 53.42220 | -6.23899 | 214 ft | 0 kts | 297° |
| 2026-05-01 15:19 | 53.42228 | -6.23925 | 217 ft | 4 kts | 297° |
| 2026-05-01 15:19 | 53.42257 | -6.24037 | 211 ft | 8 kts | 279° |
| 2026-05-01 15:19 | 53.42240 | -6.24127 | 212 ft | 9 kts | 228° |
| 2026-05-01 15:20 | 53.42158 | -6.24320 | 211 ft | 12 kts | 274° |
| 2026-05-01 15:20 | 53.42167 | -6.24468 | 214 ft | 13 kts | 276° |
| 2026-05-01 15:20 | 53.42175 | -6.24632 | 214 ft | 15 kts | 274° |
| 2026-05-01 15:21 | 53.42230 | -6.24763 | 214 ft | 14 kts | 335° |
| 2026-05-01 15:21 | 53.42315 | -6.24827 | 211 ft | 12 kts | 336° |
| 2026-05-01 15:21 | 53.42389 | -6.24881 | 214 ft | 11 kts | 336° |
| 2026-05-01 15:21 | 53.42472 | -6.24941 | 216 ft | 12 kts | 336° |
| 2026-05-01 15:22 | 53.42679 | -6.25093 | 213 ft | 21 kts | 330° |
| 2026-05-01 15:22 | 53.42788 | -6.25236 | 214 ft | 20 kts | 335° |
| 2026-05-01 15:22 | 53.42918 | -6.25331 | 211 ft | 21 kts | 336° |
| 2026-05-01 15:23 | 53.43054 | -6.25432 | 212 ft | 22 kts | 336° |
| 2026-05-01 15:23 | 53.43199 | -6.25535 | 213 ft | 23 kts | 336° |
| 2026-05-01 15:23 | 53.43347 | -6.25644 | 217 ft | 20 kts | 339° |
| 2026-05-01 15:23 | 53.43405 | -6.25530 | 211 ft | 15 kts | 96° |
| 2026-05-01 15:24 | 53.43391 | -6.25305 | 211 ft | 21 kts | 98° |
| 2026-05-01 15:24 | 53.43381 | -6.25077 | 211 ft | 18 kts | 95° |
| 2026-05-01 15:24 | 53.43370 | -6.24875 | 211 ft | 16 kts | 95° |
| 2026-05-01 15:24 | 53.43359 | -6.24694 | 211 ft | 16 kts | 95° |
| 2026-05-01 15:25 | 53.43348 | -6.24480 | 211 ft | 19 kts | 96° |
| 2026-05-01 15:25 | 53.43336 | -6.24274 | 211 ft | 17 kts | 95° |
| 2026-05-01 15:25 | 53.43325 | -6.24073 | 211 ft | 17 kts | 95° |
| 2026-05-01 15:25 | 53.43324 | -6.23895 | 214 ft | 14 kts | 63° |
| 2026-05-01 15:26 | 53.43406 | -6.23848 | 210 ft | 13 kts | 4° |
| 2026-05-01 15:26 | 53.43483 | -6.23890 | 211 ft | 12 kts | 297° |
| 2026-05-01 15:26 | 53.43496 | -6.24063 | 210 ft | 31 kts | 275° |
| 2026-05-01 15:26 | 53.43539 | -6.24861 | 213 ft | 102 kts | 275° |
| 2026-05-01 15:27 | 53.43620 | -6.26379 | 220 ft | 155 kts | 276° |
| 2026-05-01 15:27 | 53.43692 | -6.27582 | 554 ft | 157 kts | 273° |
| 2026-05-01 15:27 | 53.43821 | -6.29439 | 1095 ft | 165 kts | 279° |
| 2026-05-01 15:28 | 53.45414 | -6.32589 | 2219 ft | 196 kts | 309° |
| 2026-05-01 15:28 | 53.46327 | -6.34394 | 2705 ft | 212 kts | 303° |
| 2026-05-01 15:28 | 53.47516 | -6.37175 | 3394 ft | 232 kts | 301° |
| 2026-05-01 15:29 | 53.49137 | -6.41141 | 4283 ft | 260 kts | 302° |
| 2026-05-01 15:29 | 53.50181 | -6.43677 | 5057 ft | 267 kts | 302° |
| 2026-05-01 15:29 | 53.50961 | -6.49452 | 6742 ft | 261 kts | 249° |
| 2026-05-01 15:30 | 53.49304 | -6.54898 | 8264 ft | 268 kts | 239° |
| 2026-05-01 15:31 | 53.45605 | -6.66197 | 10999 ft | 296 kts | 234° |
| 2026-05-01 15:31 | 53.43263 | -6.72359 | 11698 ft | 330 kts | 233° |
| 2026-05-01 15:32 | 53.40668 | -6.79114 | 12409 ft | 357 kts | 234° |
| 2026-05-01 15:32 | 53.37966 | -6.86217 | 13723 ft | 364 kts | 234° |
| 2026-05-01 15:33 | 53.33844 | -6.97090 | 15541 ft | 373 kts | 234° |
| 2026-05-01 15:34 | 53.29626 | -7.08153 | 17376 ft | 380 kts | 233° |